createdAt,value
2022-09-25T00:00:29.875Z,3.73
2022-09-25T00:03:32.361Z,3.07
2022-09-25T00:06:34.316Z,3.70
2022-09-25T00:09:36.276Z,3.47
2022-09-25T00:12:38.679Z,3.40
2022-09-25T00:15:49.800Z,3.50
2022-09-25T00:19:10.513Z,3.20
2022-09-25T00:22:12.425Z,3.27
2022-09-25T00:25:15.732Z,3.33
2022-09-25T00:28:18.362Z,3.90
2022-09-25T00:31:25.573Z,3.10
2022-09-25T00:34:27.525Z,3.17
2022-09-25T00:37:29.760Z,3.50
2022-09-25T00:40:31.657Z,3.47
2022-09-25T00:43:40.884Z,3.60
2022-09-25T00:46:44.389Z,3.60
2022-09-25T00:49:47.688Z,3.53
2022-09-25T00:52:53.869Z,3.40
2022-09-25T00:55:57.143Z,3.20
2022-09-25T00:58:59.373Z,3.30
2022-09-25T01:02:01.618Z,3.50
2022-09-25T01:05:08.415Z,3.33
2022-09-25T01:08:19.316Z,3.63
2022-09-25T01:11:21.450Z,3.40
2022-09-25T01:14:23.531Z,3.87
2022-09-25T01:17:40.763Z,4.00
2022-09-25T01:21:06.356Z,3.77
2022-09-25T01:24:30.464Z,3.57
2022-09-25T01:27:49.465Z,3.70
2022-09-25T01:30:59.330Z,3.23
2022-09-25T01:34:12.810Z,3.70
2022-09-25T01:37:17.761Z,4.20
2022-09-25T01:40:37.966Z,3.40
2022-09-25T01:43:48.610Z,3.97
2022-09-25T01:46:56.221Z,3.20
2022-09-25T01:50:05.168Z,3.70
2022-09-25T01:53:14.685Z,3.43
2022-09-25T01:56:33.227Z,4.10
2022-09-25T01:59:54.653Z,3.93
2022-09-25T02:03:06.598Z,3.50
2022-09-25T02:06:13.496Z,3.77
2022-09-25T02:09:29.791Z,3.80
2022-09-25T02:12:37.553Z,3.30
2022-09-25T02:15:49.838Z,3.60
2022-09-25T02:19:11.185Z,3.60
2022-09-25T02:22:28.767Z,3.60
2022-09-25T02:25:57.141Z,3.60
2022-09-25T02:29:00.411Z,3.73
2022-09-25T02:32:09.399Z,4.07
2022-09-25T02:35:11.369Z,3.63
2022-09-25T02:38:15.110Z,3.90
2022-09-25T02:41:36.088Z,3.80
2022-09-25T02:44:52.229Z,3.50
2022-09-25T02:48:25.974Z,4.27
2022-09-25T02:51:44.989Z,4.07
2022-09-25T02:54:55.885Z,4.47
2022-09-25T02:58:09.457Z,4.00
2022-09-25T03:01:16.965Z,4.03
2022-09-25T03:04:20.289Z,3.40
2022-09-25T03:07:22.766Z,3.97
2022-09-25T03:10:25.977Z,4.07
2022-09-25T03:13:32.379Z,4.70
2022-09-25T03:16:40.712Z,4.13
2022-09-25T03:19:42.755Z,4.17
2022-09-25T03:22:44.647Z,4.30
2022-09-25T03:25:50.387Z,4.27
2022-09-25T03:28:54.250Z,4.43
2022-09-25T03:31:56.226Z,4.60
2022-09-25T03:34:58.185Z,4.40
2022-09-25T03:38:00.084Z,5.23
2022-09-25T03:41:02.802Z,5.30
2022-09-25T03:44:05.060Z,4.87
2022-09-25T03:47:07.147Z,5.57
2022-09-25T03:50:09.317Z,5.60
2022-09-25T03:53:11.270Z,6.10
2022-09-25T03:56:15.529Z,5.73
2022-09-25T03:59:17.434Z,6.70
2022-09-25T04:02:19.802Z,6.10
2022-09-25T04:05:21.876Z,6.20
2022-09-25T04:08:26.143Z,7.13
2022-09-25T04:11:28.327Z,6.37
2022-09-25T04:14:31.923Z,6.17
2022-09-25T04:17:33.795Z,5.87
2022-09-25T04:20:35.923Z,6.13
2022-09-25T04:23:39.672Z,5.90
2022-09-25T04:26:41.697Z,6.43
2022-09-25T04:29:43.599Z,5.30
2022-09-25T04:33:04.177Z,5.97
2022-09-25T04:36:07.066Z,6.00
2022-09-25T04:39:10.087Z,5.50
2022-09-25T04:42:12.189Z,6.77
2022-09-25T04:45:14.977Z,6.00
2022-09-25T04:48:16.912Z,6.23
2022-09-25T04:51:18.799Z,6.03
2022-09-25T04:54:20.747Z,8.33
2022-09-25T04:57:53.470Z,6.80
2022-09-25T05:00:45.614Z,6.83
2022-09-25T05:03:54.080Z,6.40
2022-09-25T05:06:56.266Z,6.73
2022-09-25T05:09:58.927Z,7.53
2022-09-25T05:13:02.811Z,8.00
2022-09-25T05:16:05.073Z,6.73
2022-09-25T05:19:07.039Z,6.93
2022-09-25T05:22:09.091Z,7.13
2022-09-25T05:25:11.097Z,6.43
2022-09-25T05:28:13.043Z,8.00
2022-09-25T05:31:15.001Z,7.77
2022-09-25T05:34:16.895Z,7.10
2022-09-25T05:37:19.234Z,7.30
2022-09-25T05:40:24.880Z,7.03
2022-09-25T05:43:27.272Z,7.60
2022-09-25T05:46:29.235Z,7.03
2022-09-25T05:49:31.190Z,6.30
2022-09-25T05:52:33.109Z,6.90
2022-09-25T05:55:35.055Z,7.93
2022-09-25T05:58:37.027Z,7.87
2022-09-25T06:01:39.010Z,8.03
2022-09-25T06:04:40.986Z,8.17
2022-09-25T06:07:42.895Z,7.30
2022-09-25T06:10:44.779Z,7.60
2022-09-25T06:13:54.069Z,7.23
2022-09-25T06:16:59.684Z,7.40
2022-09-25T06:20:01.872Z,7.30
2022-09-25T06:23:03.894Z,6.87
2022-09-25T06:26:07.197Z,6.63
2022-09-25T06:29:09.374Z,6.23
2022-09-25T06:32:11.302Z,6.77
2022-09-25T06:35:13.582Z,6.00
2022-09-25T06:38:17.141Z,6.27
2022-09-25T06:41:19.070Z,6.07
2022-09-25T06:44:23.271Z,5.43
2022-09-25T06:47:27.012Z,5.57
2022-09-25T06:50:36.735Z,5.20
2022-09-25T06:53:38.699Z,6.17
2022-09-25T06:56:40.760Z,5.87
2022-09-25T06:59:42.951Z,5.70
2022-09-25T07:03:03.636Z,5.87
2022-09-25T07:06:08.653Z,6.10
2022-09-25T07:09:10.690Z,5.60
2022-09-25T07:12:12.758Z,5.70
2022-09-25T07:15:15.912Z,5.57
2022-09-25T07:18:17.800Z,5.63
2022-09-25T07:21:22.140Z,5.13
2022-09-25T07:24:24.107Z,6.80
2022-09-25T07:27:26.475Z,7.13
2022-09-25T07:30:29.783Z,6.23
2022-09-25T07:33:32.778Z,6.50
2022-09-25T07:36:35.932Z,5.50
2022-09-25T07:39:37.875Z,5.87
2022-09-25T07:42:40.250Z,6.00
2022-09-25T07:45:49.827Z,6.63
2022-09-25T07:48:52.127Z,5.50
2022-09-25T07:51:54.006Z,5.73
2022-09-25T07:54:55.944Z,6.00
2022-09-25T07:57:58.411Z,5.40
2022-09-25T08:01:02.143Z,5.63
2022-09-25T08:04:04.242Z,6.73
2022-09-25T08:07:06.537Z,5.63
2022-09-25T08:10:08.802Z,7.00
2022-09-25T08:13:10.806Z,6.73
2022-09-25T08:16:18.441Z,7.13
2022-09-25T08:19:24.978Z,7.97
2022-09-25T08:22:27.522Z,8.07
2022-09-25T08:25:29.458Z,9.07
2022-09-25T08:28:31.586Z,8.40
2022-09-25T08:31:34.933Z,8.93
2022-09-25T08:34:41.079Z,7.63
2022-09-25T08:37:45.128Z,7.90
2022-09-25T08:40:55.364Z,7.30
2022-09-25T08:44:05.422Z,7.47
2022-09-25T08:47:39.875Z,7.60
2022-09-25T08:50:43.268Z,6.77
2022-09-25T08:53:46.290Z,6.20
2022-09-25T08:56:51.778Z,7.13
2022-09-25T09:00:02.206Z,6.20
2022-09-25T09:03:04.977Z,6.93
2022-09-25T09:06:12.762Z,6.23
2022-09-25T09:10:09.981Z,6.40
2022-09-25T09:13:33.003Z,6.00
2022-09-25T09:17:01.246Z,5.53
2022-09-25T09:20:15.582Z,6.10
2022-09-25T09:23:21.291Z,5.77
2022-09-25T09:26:32.012Z,6.17
2022-09-25T09:30:05.190Z,6.30
2022-09-25T09:33:41.827Z,6.80
2022-09-25T09:36:53.247Z,6.77
2022-09-25T09:40:21.259Z,6.73
2022-09-25T09:43:36.966Z,6.57
2022-09-25T09:47:09.582Z,6.40
2022-09-25T09:50:32.836Z,7.10
2022-09-25T09:53:40.481Z,7.60
2022-09-25T09:56:46.440Z,8.43
2022-09-25T10:00:15.068Z,6.67
2022-09-25T10:03:28.457Z,7.40
2022-09-25T10:06:33.675Z,7.60
2022-09-25T10:09:37.511Z,7.83
2022-09-25T10:12:42.346Z,7.80
2022-09-25T10:15:51.994Z,6.80
2022-09-25T10:19:11.833Z,7.20
2022-09-25T10:22:20.926Z,6.87
2022-09-25T10:25:38.561Z,8.53
2022-09-25T10:28:40.762Z,6.93
2022-09-25T10:31:42.845Z,6.70
2022-09-25T10:34:53.019Z,7.47
2022-09-25T10:37:57.812Z,7.53
2022-09-25T10:41:05.311Z,6.47
2022-09-25T10:44:22.040Z,8.10
2022-09-25T10:47:42.282Z,6.10
2022-09-25T10:50:44.409Z,6.70
2022-09-25T10:53:50.929Z,6.30
2022-09-25T10:56:53.985Z,5.67
2022-09-25T10:59:56.132Z,5.43
2022-09-25T11:03:01.590Z,6.00
2022-09-25T11:06:08.691Z,5.37
2022-09-25T11:09:17.400Z,5.43
2022-09-25T11:12:26.203Z,6.57
2022-09-25T11:15:28.296Z,6.43
2022-09-25T11:18:40.921Z,6.00
2022-09-25T11:21:50.248Z,5.43
2022-09-25T11:25:15.872Z,6.00
2022-09-25T11:28:49.307Z,6.73
2022-09-25T11:32:35.199Z,6.43
2022-09-25T11:35:46.189Z,5.77
2022-09-25T11:39:07.486Z,6.30
2022-09-25T11:42:21.781Z,6.00
2022-09-25T11:45:23.697Z,6.50
2022-09-25T11:48:46.842Z,5.90
2022-09-25T11:52:09.850Z,7.23
2022-09-25T11:55:23.892Z,6.80
2022-09-25T11:59:08.036Z,6.87
2022-09-25T12:02:32.917Z,6.07
2022-09-25T12:06:03.150Z,6.73
2022-09-25T12:09:31.489Z,6.33
2022-09-25T12:13:02.662Z,6.87
2022-09-25T12:16:32.619Z,6.30
2022-09-25T12:20:11.788Z,8.17
2022-09-25T12:23:43.312Z,8.07
2022-09-25T12:27:15.126Z,7.33
2022-09-25T12:30:20.633Z,7.93
2022-09-25T12:33:32.745Z,7.83
2022-09-25T12:36:47.571Z,8.70
2022-09-25T12:39:58.399Z,7.77
2022-09-25T12:43:08.307Z,9.10
2022-09-25T12:46:10.432Z,9.80
2022-09-25T12:49:26.526Z,9.13
2022-09-25T12:52:36.317Z,10.07
2022-09-25T12:55:50.645Z,9.13
2022-09-25T12:59:06.021Z,9.00
2022-09-25T13:02:31.646Z,10.57
2022-09-25T13:05:38.092Z,10.57
2022-09-25T13:08:43.575Z,9.17
2022-09-25T13:12:04.075Z,10.03
2022-09-25T13:15:07.789Z,10.53
2022-09-25T13:18:18.323Z,9.33
2022-09-25T13:21:31.321Z,8.07
2022-09-25T13:25:05.522Z,8.60
2022-09-25T13:28:09.487Z,8.80
2022-09-25T13:31:23.581Z,7.93
2022-09-25T13:34:26.749Z,7.90
2022-09-25T13:37:35.166Z,7.60
2022-09-25T13:40:46.438Z,7.73
2022-09-25T13:43:49.721Z,8.77
2022-09-25T13:46:51.742Z,6.90
2022-09-25T13:50:11.883Z,7.33
2022-09-25T13:53:22.589Z,7.17
2022-09-25T13:56:26.871Z,8.57
2022-09-25T13:59:39.212Z,7.90
2022-09-25T14:02:44.351Z,7.97
2022-09-25T14:05:46.315Z,8.60
2022-09-25T14:08:49.996Z,9.50
2022-09-25T14:12:03.819Z,7.90
2022-09-25T14:15:13.402Z,7.20
2022-09-25T14:18:36.454Z,7.73
2022-09-25T14:21:38.488Z,8.20
2022-09-25T14:24:45.467Z,8.80
2022-09-25T14:27:53.092Z,8.87
2022-09-25T14:31:24.269Z,8.63
2022-09-25T14:34:37.935Z,8.00
2022-09-25T14:38:09.151Z,8.53
2022-09-25T14:41:58.669Z,8.03
2022-09-25T14:45:18.898Z,7.67
2022-09-25T14:48:27.778Z,7.80
2022-09-25T14:51:44.941Z,8.73
2022-09-25T14:54:49.069Z,7.53
2022-09-25T14:57:52.103Z,6.37
2022-09-25T15:00:58.395Z,8.63
2022-09-25T15:04:03.700Z,9.20
2022-09-25T15:07:08.349Z,8.43
2022-09-25T15:10:39.120Z,7.93
2022-09-25T15:13:42.664Z,6.70
2022-09-25T15:17:03.067Z,6.70
2022-09-25T15:20:08.645Z,5.93
2022-09-25T15:23:18.805Z,5.90
2022-09-25T15:26:21.916Z,8.13
2022-09-25T15:29:25.690Z,6.10
2022-09-25T15:32:40.007Z,6.37
2022-09-25T15:35:42.018Z,6.73
2022-09-25T15:38:44.775Z,5.63
2022-09-25T15:41:46.846Z,5.93
2022-09-25T15:44:49.595Z,6.53
2022-09-25T15:47:54.087Z,7.37
2022-09-25T15:50:57.736Z,9.47
2022-09-25T15:54:31.347Z,7.57
2022-09-25T15:57:33.995Z,7.60
2022-09-25T16:00:54.463Z,6.63
2022-09-25T16:04:15.064Z,6.70
2022-09-25T16:07:36.286Z,8.20
2022-09-25T16:10:38.937Z,7.20
2022-09-25T16:13:58.136Z,6.20
2022-09-25T16:17:00.368Z,7.47
2022-09-25T16:20:16.874Z,7.27
2022-09-25T16:23:29.018Z,6.90
2022-09-25T16:26:38.339Z,8.87
2022-09-25T16:29:44.525Z,8.40
2022-09-25T16:32:52.863Z,6.13
2022-09-25T16:36:12.930Z,6.17
2022-09-25T16:39:36.252Z,4.60
2022-09-25T16:42:40.629Z,5.17
2022-09-25T16:45:58.187Z,5.50
2022-09-25T16:49:02.366Z,4.60
2022-09-25T16:52:07.940Z,4.73
2022-09-25T16:55:24.359Z,5.07
2022-09-25T16:58:26.547Z,5.40
2022-09-25T17:01:28.815Z,5.80
2022-09-25T17:04:31.368Z,4.67
2022-09-25T17:07:33.382Z,5.37
2022-09-25T17:10:36.327Z,6.53
2022-09-25T17:13:38.706Z,6.10
2022-09-25T17:16:40.628Z,5.93
2022-09-25T17:19:42.648Z,5.53
2022-09-25T17:22:44.628Z,4.60
2022-09-25T17:25:58.246Z,5.30
2022-09-25T17:29:02.257Z,4.33
2022-09-25T17:32:05.559Z,4.57
2022-09-25T17:35:25.964Z,4.23
2022-09-25T17:38:27.933Z,4.60
2022-09-25T17:41:34.520Z,4.53
2022-09-25T17:44:36.905Z,4.80
2022-09-25T17:47:39.153Z,4.43
2022-09-25T17:50:41.625Z,4.83
2022-09-25T17:53:44.395Z,4.70
2022-09-25T17:56:46.554Z,4.50
2022-09-25T17:59:48.725Z,4.13
2022-09-25T18:02:50.761Z,4.17
2022-09-25T18:05:53.898Z,5.40
2022-09-25T18:08:56.214Z,5.77
2022-09-25T18:11:58.255Z,5.33
2022-09-25T18:15:00.248Z,4.80
2022-09-25T18:18:02.454Z,4.87
2022-09-25T18:21:23.216Z,5.67
2022-09-25T18:24:25.510Z,5.07
2022-09-25T18:27:33.628Z,4.70
2022-09-25T18:30:38.535Z,4.40
2022-09-25T18:33:45.294Z,4.67
2022-09-25T18:36:50.232Z,4.90
2022-09-25T18:39:53.371Z,4.57
2022-09-25T18:42:55.825Z,4.13
2022-09-25T18:45:57.868Z,4.47
2022-09-25T18:48:59.989Z,4.50
2022-09-25T18:52:01.987Z,4.17
2022-09-25T18:55:05.420Z,3.90
2022-09-25T18:58:07.383Z,5.27
2022-09-25T19:01:09.596Z,4.73
2022-09-25T19:04:15.788Z,4.67
2022-09-25T19:07:18.433Z,5.23
2022-09-25T19:10:21.775Z,4.33
2022-09-25T19:13:23.946Z,5.13
2022-09-25T19:16:26.009Z,4.77
2022-09-25T19:19:30.721Z,5.30
2022-09-25T19:22:34.490Z,4.50
2022-09-25T19:25:37.473Z,5.23
2022-09-25T19:28:41.055Z,5.23
2022-09-25T19:31:43.249Z,4.37
2022-09-25T19:34:45.725Z,4.77
2022-09-25T19:37:48.003Z,4.30
2022-09-25T19:40:50.089Z,6.33
2022-09-25T19:43:53.483Z,5.93
2022-09-25T19:46:55.478Z,5.60
2022-09-25T19:49:57.888Z,5.73
2022-09-25T19:53:01.493Z,5.73
2022-09-25T19:56:03.676Z,6.03
2022-09-25T19:59:05.892Z,5.40
2022-09-25T20:02:09.796Z,5.27
2022-09-25T20:05:12.180Z,5.10
2022-09-25T20:08:14.117Z,5.37
2022-09-25T20:11:19.261Z,5.17
2022-09-25T20:14:25.655Z,6.30
2022-09-25T20:17:27.719Z,6.80
2022-09-25T20:20:29.954Z,6.83
2022-09-25T20:23:32.111Z,6.40
2022-09-25T20:26:36.068Z,7.10
2022-09-25T20:29:38.207Z,8.20
2022-09-25T20:32:40.633Z,7.73
2022-09-25T20:35:42.622Z,7.30
2022-09-25T20:38:47.901Z,6.73
2022-09-25T20:41:50.726Z,6.63
2022-09-25T20:44:52.721Z,7.00
2022-09-25T20:47:55.338Z,7.97
2022-09-25T20:50:57.375Z,6.63
2022-09-25T20:54:02.854Z,8.40
2022-09-25T20:57:04.773Z,8.70
2022-09-25T21:00:07.435Z,7.87
2022-09-25T21:03:09.799Z,7.93
2022-09-25T21:06:16.595Z,7.80
2022-09-25T21:09:21.598Z,8.67
2022-09-25T21:12:23.684Z,9.17
2022-09-25T21:15:28.138Z,8.90
2022-09-25T21:18:31.175Z,8.30
2022-09-25T21:21:34.149Z,8.50
2022-09-25T21:24:36.231Z,9.73
2022-09-25T21:27:38.379Z,9.90
2022-09-25T21:30:40.547Z,8.97
2022-09-25T21:33:43.412Z,7.73
2022-09-25T21:36:45.889Z,8.00
2022-09-25T21:39:47.819Z,8.37
2022-09-25T21:42:49.802Z,10.20
2022-09-25T21:45:51.918Z,8.93
2022-09-25T21:48:59.738Z,8.90
2022-09-25T21:52:02.064Z,8.90
2022-09-25T21:55:04.421Z,10.50
2022-09-25T21:58:06.355Z,8.93
2022-09-25T22:01:14.409Z,10.17
2022-09-25T22:04:16.545Z,9.33
2022-09-25T22:07:18.503Z,8.53
2022-09-25T22:10:20.576Z,10.40
2022-09-25T22:13:22.825Z,9.53
2022-09-25T22:16:31.297Z,10.43
2022-09-25T22:19:33.230Z,10.37
2022-09-25T22:22:35.186Z,7.87
2022-09-25T22:25:37.228Z,8.60
2022-09-25T22:28:40.102Z,8.40
2022-09-25T22:31:43.613Z,9.47
2022-09-25T22:34:45.660Z,9.33
2022-09-25T22:37:47.602Z,8.77
2022-09-25T22:40:50.663Z,9.90
2022-09-25T22:43:54.220Z,10.40
2022-09-25T22:46:57.442Z,8.77
2022-09-25T22:50:00.534Z,8.90
2022-09-25T22:53:02.499Z,10.93
2022-09-25T22:56:28.485Z,9.87
2022-09-25T22:59:30.784Z,10.33
2022-09-25T23:02:32.942Z,8.63
2022-09-25T23:05:39.100Z,10.70
2022-09-25T23:08:41.389Z,11.27
2022-09-25T23:11:44.055Z,10.13
2022-09-25T23:14:46.753Z,10.83
2022-09-25T23:17:48.731Z,10.40
2022-09-25T23:20:54.859Z,10.97
2022-09-25T23:23:58.719Z,12.10
2022-09-25T23:27:00.867Z,12.57
2022-09-25T23:30:02.882Z,12.30
2022-09-25T23:33:05.130Z,14.83
2022-09-25T23:36:10.216Z,10.87
2022-09-25T23:39:17.916Z,10.20
2022-09-25T23:42:22.493Z,13.13
2022-09-25T23:45:24.610Z,14.73
2022-09-25T23:48:27.216Z,15.47
2022-09-25T23:51:29.586Z,11.93
2022-09-25T23:54:32.035Z,12.03
2022-09-25T23:57:37.895Z,15.47
